Time;durP1;ratioP1;P1;durP2;ratioP2;P2;SDS_P1;SDS_P2;PMS_P1;PMS_P2;Temp;Humidity;BMP_temperature;BMP_pressure;BME280_temperature;BME280_humidity;BME280_pressure;Samples;Min_cycle;Max_cycle;Signal;HPM_P1;HPM_P2
2023/08/16 00:02:01;;;;;;;3.92;2.80;;;12.80;99.90;;;;;;5073879;28;20192;-71
2023/08/16 00:04:32;;;;;;;5.40;3.00;;;12.90;99.90;;;;;;5084476;28;20196;-70
2023/08/16 00:07:03;;;;;;;3.53;2.47;;;12.90;99.90;;;;;;5082343;28;20702;-69
2023/08/16 00:09:35;;;;;;;4.18;2.65;;;13.00;99.90;;;;;;5077406;28;20196;-71
2023/08/16 00:12:06;;;;;;;7.05;2.78;;;13.20;99.90;;;;;;5091117;28;20238;-70
2023/08/16 00:14:37;;;;;;;4.40;2.90;;;13.30;99.90;;;;;;5078632;28;20258;-69
2023/08/16 00:17:08;;;;;;;3.65;2.65;;;13.50;99.90;;;;;;5082048;28;20664;-70
2023/08/16 00:19:39;;;;;;;5.68;2.42;;;13.60;99.90;;;;;;5074459;28;20192;-71
2023/08/16 00:22:09;;;;;;;4.82;2.60;;;13.60;99.90;;;;;;5079704;28;20186;-71
2023/08/16 00:24:42;;;;;;;3.97;1.83;;;13.60;99.90;;;;;;5073755;28;20225;-72
2023/08/16 00:27:13;;;;;;;3.33;1.85;;;13.80;99.90;;;;;;5074007;28;20195;-69
2023/08/16 00:29:44;;;;;;;3.85;1.70;;;13.90;99.90;;;;;;5077208;28;20185;-71
2023/08/16 00:32:14;;;;;;;3.25;1.73;;;14.10;99.90;;;;;;5093951;28;20192;-71
2023/08/16 00:34:45;;;;;;;3.90;1.58;;;14.20;99.90;;;;;;5093898;28;20307;-70
2023/08/16 00:37:16;;;;;;;66.40;46.88;;;14.40;99.90;;;;;;5093885;28;20189;-69
2023/08/16 00:39:49;;;;;;;37.30;23.65;;;14.50;99.90;;;;;;5090596;28;20701;-71
2023/08/16 00:42:19;;;;;;;45.22;28.35;;;14.60;99.90;;;;;;5074154;28;20200;-71
2023/08/16 00:44:50;;;;;;;16.02;7.97;;;14.70;99.90;;;;;;5073687;28;20193;-71
2023/08/16 00:47:21;;;;;;;13.35;7.60;;;14.80;99.90;;;;;;5073333;28;20196;-70
2023/08/16 00:49:52;;;;;;;15.15;9.75;;;14.90;99.90;;;;;;5085735;28;20185;-69
2023/08/16 00:52:23;;;;;;;10.13;6.80;;;15.00;99.90;;;;;;5073557;28;20185;-70
2023/08/16 00:54:56;;;;;;;1.40;1.10;;;15.10;99.90;;;;;;5073280;28;20220;-70
2023/08/16 00:57:27;;;;;;;2.47;1.40;;;15.20;99.90;;;;;;5073485;28;20189;-69
2023/08/16 00:59:57;;;;;;;3.03;1.38;;;15.40;99.90;;;;;;5077039;28;20219;-70
2023/08/16 01:02:28;;;;;;;6.13;3.58;;;15.50;99.90;;;;;;5093394;28;20211;-68
2023/08/16 01:05:00;;;;;;;2.85;1.10;;;15.80;99.90;;;;;;5088178;28;20204;-70
2023/08/16 01:07:31;;;;;;;2.25;0.80;;;15.90;99.90;;;;;;5092924;28;20555;-73
2023/08/16 01:10:04;;;;;;;3.72;1.00;;;16.00;99.90;;;;;;5086060;28;20216;-70
2023/08/16 01:12:39;;;;;;;1.27;0.77;;;16.00;99.90;;;;;;5074848;28;20683;-71
2023/08/16 01:15:15;;;;;;;1.88;0.70;;;16.00;99.90;;;;;;5078010;28;20224;-70
2023/08/16 01:17:50;;;;;;;1.70;0.60;;;16.10;99.90;;;;;;5086989;28;20639;-73
2023/08/16 01:20:23;;;;;;;2.60;0.70;;;16.30;99.90;;;;;;5081660;28;20192;-69
2023/08/16 01:23:01;;;;;;;0.57;0.40;;;16.40;99.90;;;;;;5077345;28;20663;-70
2023/08/16 01:25:45;;;;;;;1.73;0.45;;;16.30;99.90;;;;;;5077350;28;20187;-71
2023/08/16 01:28:19;;;;;;;0.65;0.30;;;16.40;99.90;;;;;;5073174;28;20196;-71
2023/08/16 01:30:51;;;;;;;1.00;0.40;;;16.40;99.90;;;;;;5073607;28;21029;-70
2023/08/16 01:33:22;;;;;;;1.58;0.60;;;16.40;99.90;;;;;;5082940;28;20212;-70
2023/08/16 01:35:52;;;;;;;1.13;0.50;;;16.50;99.90;;;;;;5084387;28;20201;-70
2023/08/16 01:38:23;;;;;;;1.80;0.43;;;16.30;99.90;;;;;;5086196;28;20200;-70
2023/08/16 01:41:00;;;;;;;1.05;0.50;;;16.30;99.90;;;;;;5089144;28;20245;-70
2023/08/16 01:43:34;;;;;;;0.80;0.40;;;16.40;99.90;;;;;;5074282;28;20196;-70
2023/08/16 01:46:07;;;;;;;1.45;0.60;;;16.50;99.90;;;;;;5076021;28;20204;-70
2023/08/16 01:48:39;;;;;;;1.95;0.70;;;16.30;99.90;;;;;;5081658;28;20216;-70
2023/08/16 01:51:09;;;;;;;1.83;0.50;;;16.20;99.90;;;;;;5086353;28;20250;-70
2023/08/16 01:53:40;;;;;;;1.38;0.50;;;16.10;99.90;;;;;;5078418;28;20221;-70
2023/08/16 01:56:11;;;;;;;1.35;0.47;;;16.10;99.90;;;;;;5084141;28;20652;-70
2023/08/16 01:58:44;;;;;;;1.58;0.85;;;16.00;99.90;;;;;;5089901;28;20193;-70
2023/08/16 02:01:14;;;;;;;1.38;0.70;;;16.10;99.90;;;;;;5076291;28;20192;-69
2023/08/16 02:03:45;;;;;;;1.40;0.70;;;16.00;99.90;;;;;;5076214;28;20205;-70
2023/08/16 02:06:16;;;;;;;1.27;0.60;;;16.00;99.90;;;;;;5081971;28;20205;-70
2023/08/16 02:08:47;;;;;;;1.83;0.75;;;16.00;99.90;;;;;;5095921;28;20249;-70
2023/08/16 02:11:17;;;;;;;1.92;0.65;;;16.00;99.90;;;;;;5085069;28;20617;-70
2023/08/16 02:13:50;;;;;;;3.25;0.77;;;15.90;99.90;;;;;;5076255;28;20239;-70
2023/08/16 02:16:23;;;;;;;1.42;0.75;;;15.90;99.90;;;;;;5078415;28;20664;-70
2023/08/16 02:18:55;;;;;;;0.88;0.57;;;16.00;99.90;;;;;;5094524;28;20234;-70
2023/08/16 02:21:26;;;;;;;2.10;0.50;;;16.00;99.90;;;;;;5091840;28;20185;-69
2023/08/16 02:23:56;;;;;;;1.17;0.40;;;16.00;99.90;;;;;;5077979;28;20208;-69
2023/08/16 02:26:27;;;;;;;1.10;0.50;;;16.10;99.90;;;;;;5088363;28;20193;-69
2023/08/16 02:29:00;;;;;;;1.15;0.55;;;16.40;99.90;;;;;;5082766;28;20640;-69
2023/08/16 02:31:31;;;;;;;2.47;0.43;;;16.80;99.90;;;;;;5089398;28;20184;-69
2023/08/16 02:34:07;;;;;;;1.95;0.40;;;17.10;99.90;;;;;;5081502;28;20208;-73
2023/08/16 02:36:38;;;;;;;1.85;0.50;;;17.20;99.90;;;;;;5089841;28;20271;-71
2023/08/16 02:39:09;;;;;;;3.17;0.55;;;17.30;99.90;;;;;;5073873;28;20192;-69
2023/08/16 02:41:40;;;;;;;1.58;0.60;;;17.50;99.90;;;;;;5083324;28;20195;-70
2023/08/16 02:44:12;;;;;;;1.42;0.50;;;17.40;99.90;;;;;;5079956;28;20195;-71
2023/08/16 02:46:43;;;;;;;0.95;0.68;;;17.40;99.90;;;;;;5085476;28;20188;-72
2023/08/16 02:49:14;;;;;;;0.60;0.47;;;17.40;99.90;;;;;;5075246;28;20216;-70
2023/08/16 02:51:44;;;;;;;2.50;0.70;;;17.30;99.90;;;;;;5079085;28;20548;-72
2023/08/16 02:54:16;;;;;;;1.02;0.55;;;17.10;99.90;;;;;;5082280;28;20212;-70
2023/08/16 02:56:47;;;;;;;1.77;0.60;;;17.10;99.90;;;;;;5077648;28;20201;-70
2023/08/16 02:59:19;;;;;;;0.95;0.50;;;17.10;99.90;;;;;;5077863;28;20637;-71
2023/08/16 03:01:50;;;;;;;1.35;0.50;;;17.00;99.90;;;;;;5079579;28;20196;-71
2023/08/16 03:04:21;;;;;;;1.52;0.50;;;17.00;99.90;;;;;;5075375;28;20203;-70
2023/08/16 03:06:51;;;;;;;1.40;0.70;;;17.20;99.90;;;;;;5075507;28;20686;-70
2023/08/16 03:09:22;;;;;;;1.10;0.60;;;17.40;99.90;;;;;;5091275;28;20200;-71
2023/08/16 03:11:53;;;;;;;1.23;0.57;;;17.60;99.90;;;;;;5082445;28;20234;-70
2023/08/16 03:14:25;;;;;;;1.88;0.55;;;17.60;99.90;;;;;;5084964;28;20228;-71
2023/08/16 03:16:56;;;;;;;1.08;0.65;;;17.50;99.90;;;;;;5075780;28;20201;-70
2023/08/16 03:19:27;;;;;;;0.43;0.40;;;17.50;99.90;;;;;;5089541;28;20566;-69
2023/08/16 03:21:58;;;;;;;1.08;0.47;;;17.30;99.90;;;;;;5095505;28;20242;-70
2023/08/16 03:24:28;;;;;;;1.85;0.60;;;17.30;99.90;;;;;;5081171;28;20205;-70
2023/08/16 03:26:59;;;;;;;1.65;0.50;;;17.20;99.90;;;;;;5094323;28;20640;-69
2023/08/16 03:29:32;;;;;;;2.42;0.55;;;17.10;99.90;;;;;;5095542;28;20644;-71
2023/08/16 03:32:02;;;;;;;0.80;0.50;;;17.00;99.90;;;;;;5081360;28;20197;-72
2023/08/16 03:34:33;;;;;;;1.02;0.50;;;17.00;99.90;;;;;;5088397;28;20224;-69
2023/08/16 03:37:04;;;;;;;0.55;0.40;;;16.90;99.90;;;;;;5095409;28;20192;-71
2023/08/16 03:39:35;;;;;;;2.42;0.50;;;16.80;99.90;;;;;;5080954;28;20192;-70
2023/08/16 03:42:05;;;;;;;0.85;0.50;;;16.70;99.90;;;;;;5080431;28;20637;-70
2023/08/16 03:44:38;;;;;;;1.85;0.50;;;16.70;99.90;;;;;;5081828;28;20200;-69
2023/08/16 03:47:09;;;;;;;0.40;0.40;;;16.90;99.90;;;;;;5080567;28;20268;-69
2023/08/16 03:49:40;;;;;;;0.80;0.60;;;17.10;99.90;;;;;;5081970;28;20542;-70
2023/08/16 03:52:11;;;;;;;1.33;0.50;;;17.20;99.90;;;;;;5082315;28;20185;-70
2023/08/16 03:54:41;;;;;;;0.77;0.50;;;17.30;99.90;;;;;;5080746;28;20240;-70
2023/08/16 03:57:12;;;;;;;0.43;0.40;;;17.30;99.90;;;;;;5083567;28;20550;-69
2023/08/16 03:59:45;;;;;;;0.85;0.40;;;17.30;99.90;;;;;;5075099;28;20196;-70
2023/08/16 04:02:15;;;;;;;0.75;0.50;;;17.20;99.90;;;;;;5086144;28;20211;-70
2023/08/16 04:04:46;;;;;;;1.05;0.50;;;17.10;99.90;;;;;;5082422;28;20200;-72
2023/08/16 04:07:17;;;;;;;2.13;0.40;;;17.00;99.90;;;;;;5076303;28;20567;-70
2023/08/16 04:09:47;;;;;;;0.88;0.40;;;17.10;99.90;;;;;;5081519;28;20196;-69
2023/08/16 04:12:18;;;;;;;2.35;0.50;;;17.10;99.90;;;;;;5089680;28;20216;-70
2023/08/16 04:14:51;;;;;;;1.58;0.50;;;17.20;99.90;;;;;;5093136;28;20219;-71
2023/08/16 04:17:21;;;;;;;1.48;0.45;;;17.30;99.90;;;;;;5080172;28;20197;-70
2023/08/16 04:19:52;;;;;;;1.50;0.60;;;17.30;99.90;;;;;;5089487;28;20656;-70
2023/08/16 04:22:23;;;;;;;0.85;0.50;;;17.30;99.90;;;;;;5091843;28;20191;-70
2023/08/16 04:24:54;;;;;;;0.93;0.65;;;17.20;99.90;;;;;;5082750;28;20199;-70
2023/08/16 04:27:24;;;;;;;2.95;0.70;;;17.10;99.90;;;;;;5076592;28;20672;-69
2023/08/16 04:29:57;;;;;;;2.90;0.70;;;16.90;99.90;;;;;;5075295;28;20196;-69
2023/08/16 04:32:28;;;;;;;0.60;0.60;;;16.90;99.90;;;;;;5075254;28;20208;-69
2023/08/16 04:35:00;;;;;;;2.53;0.60;;;16.90;99.90;;;;;;5091144;28;20701;-69
2023/08/16 04:37:30;;;;;;;3.40;0.50;;;16.80;99.90;;;;;;5093811;28;20195;-69
2023/08/16 04:40:01;;;;;;;1.83;0.60;;;16.80;99.90;;;;;;5083943;28;20188;-68
2023/08/16 04:42:34;;;;;;;1.15;0.50;;;16.80;99.90;;;;;;5089680;28;20199;-69
2023/08/16 04:45:07;;;;;;;0.90;0.50;;;16.80;99.90;;;;;;5081906;28;20211;-71
2023/08/16 04:47:38;;;;;;;1.40;0.50;;;16.80;99.90;;;;;;5082460;28;20188;-69
2023/08/16 04:50:09;;;;;;;0.68;0.30;;;16.80;99.90;;;;;;5082003;28;20197;-69
2023/08/16 04:52:39;;;;;;;2.45;0.52;;;16.80;99.90;;;;;;5077497;28;20192;-69
2023/08/16 04:55:11;;;;;;;0.70;0.50;;;16.90;99.90;;;;;;5079672;28;20208;-69
2023/08/16 04:57:42;;;;;;;0.38;0.30;;;17.00;99.90;;;;;;5093632;28;20204;-70
2023/08/16 05:00:15;;;;;;;0.75;0.40;;;16.80;99.90;;;;;;5089514;28;20184;-71
2023/08/16 05:02:46;;;;;;;0.80;0.32;;;16.80;99.90;;;;;;5087002;28;20248;-72
2023/08/16 05:05:17;;;;;;;0.25;0.25;;;16.60;99.90;;;;;;5082879;28;20196;-72
2023/08/16 05:07:47;;;;;;;2.83;0.40;;;16.50;99.90;;;;;;5091761;28;20185;-71
2023/08/16 05:10:18;;;;;;;2.15;0.50;;;16.40;99.90;;;;;;5079387;28;20228;-70
2023/08/16 05:12:49;;;;;;;0.90;0.50;;;16.30;99.90;;;;;;5074963;28;20220;-72
2023/08/16 05:15:22;;;;;;;1.83;0.30;;;16.30;99.90;;;;;;5082655;28;20231;-72
2023/08/16 05:17:53;;;;;;;1.13;0.30;;;16.10;99.90;;;;;;5074295;28;20201;-71
2023/08/16 05:20:23;;;;;;;0.47;0.30;;;16.10;99.90;;;;;;5080212;28;20187;-71
2023/08/16 05:22:54;;;;;;;0.45;0.40;;;16.20;99.90;;;;;;5081454;28;20173;-71
2023/08/16 05:25:25;;;;;;;2.15;0.30;;;16.20;99.90;;;;;;5093043;28;20188;-71
2023/08/16 05:27:58;;;;;;;1.50;0.32;;;16.30;99.90;;;;;;5083884;28;20196;-72
2023/08/16 05:30:31;;;;;;;1.77;0.40;;;16.40;99.90;;;;;;5076037;28;20261;-70
2023/08/16 05:33:01;;;;;;;0.45;0.28;;;16.50;99.90;;;;;;5071947;28;20208;-72
2023/08/16 05:35:36;;;;;;;1.23;0.50;;;16.60;99.90;;;;;;5087125;28;20227;-72
2023/08/16 05:38:07;;;;;;;0.90;0.50;;;16.60;99.90;;;;;;5092876;28;20192;-73
2023/08/16 05:40:37;;;;;;;1.38;0.50;;;16.50;99.90;;;;;;5092835;28;20199;-73
2023/08/16 05:43:08;;;;;;;1.52;0.47;;;16.50;99.90;;;;;;5092702;28;20196;-73
2023/08/16 05:45:41;;;;;;;1.67;0.68;;;16.50;99.90;;;;;;5080571;28;20188;-73
2023/08/16 05:48:11;;;;;;;1.10;0.45;;;16.40;99.90;;;;;;5073617;28;20196;-72
2023/08/16 05:50:43;;;;;;;0.60;0.43;;;16.30;99.90;;;;;;5088831;28;20682;-72
2023/08/16 05:53:13;;;;;;;0.75;0.30;;;16.30;99.90;;;;;;5092498;28;20196;-72
2023/08/16 05:55:44;;;;;;;0.60;0.30;;;16.30;99.90;;;;;;5086573;28;20672;-72
2023/08/16 05:58:15;;;;;;;0.68;0.47;;;16.20;99.90;;;;;;5072508;28;20196;-73
2023/08/16 06:00:47;;;;;;;0.28;0.28;;;16.20;99.90;;;;;;5072802;28;20189;-71
2023/08/16 06:03:18;;;;;;;1.15;0.50;;;16.20;99.90;;;;;;5072669;28;20649;-71
2023/08/16 06:05:49;;;;;;;1.30;0.30;;;16.20;99.90;;;;;;5073755;28;20189;-71
2023/08/16 06:08:19;;;;;;;0.85;0.45;;;16.20;99.90;;;;;;5076297;28;20193;-70
2023/08/16 06:10:50;;;;;;;1.73;0.93;;;16.10;99.90;;;;;;5091855;28;20552;-70
2023/08/16 06:13:21;;;;;;;77.35;49.28;;;16.00;99.90;;;;;;5091771;28;20220;-70
2023/08/16 06:15:54;;;;;;;2.15;1.23;;;15.90;99.90;;;;;;5090788;28;20599;-70
2023/08/16 06:18:24;;;;;;;2.30;0.95;;;15.80;99.90;;;;;;5092798;28;20559;-70
2023/08/16 06:20:55;;;;;;;2.45;1.27;;;15.70;99.90;;;;;;5088726;28;20192;-70
2023/08/16 06:23:26;;;;;;;2.38;1.10;;;15.60;99.90;;;;;;5083737;28;20196;-71
2023/08/16 06:25:56;;;;;;;3.70;0.88;;;15.50;99.90;;;;;;5090931;28;20628;-71
2023/08/16 06:28:27;;;;;;;2.47;0.93;;;15.50;99.90;;;;;;5092805;28;20189;-71
2023/08/16 06:31:00;;;;;;;2.97;1.00;;;15.50;99.90;;;;;;5078611;28;20196;-70
2023/08/16 06:33:30;;;;;;;2.67;0.90;;;15.50;99.90;;;;;;5072431;28;20189;-70
2023/08/16 06:36:01;;;;;;;1.25;0.57;;;15.50;99.90;;;;;;5078682;28;20212;-70
2023/08/16 06:38:32;;;;;;;1.23;0.50;;;15.60;99.90;;;;;;5090687;28;20193;-70
2023/08/16 06:41:03;;;;;;;1.25;0.40;;;15.60;99.90;;;;;;5075426;28;20205;-71
2023/08/16 06:43:33;;;;;;;0.50;0.35;;;15.60;99.90;;;;;;5091847;28;20194;-71
2023/08/16 06:46:06;;;;;;;1.35;0.43;;;15.60;99.90;;;;;;5094209;28;20224;-70
2023/08/16 06:48:37;;;;;;;1.00;0.50;;;15.60;99.90;;;;;;5076167;28;20200;-72
2023/08/16 06:51:07;;;;;;;0.55;0.40;;;15.60;99.90;;;;;;5092788;28;20184;-71
2023/08/16 06:53:39;;;;;;;1.15;0.40;;;15.50;99.90;;;;;;5095859;28;20193;-72
2023/08/16 06:56:10;;;;;;;1.58;0.50;;;15.50;99.90;;;;;;5094462;28;20216;-71
2023/08/16 06:58:41;;;;;;;3.35;0.88;;;15.50;99.90;;;;;;5084446;28;20184;-70
2023/08/16 07:01:13;;;;;;;2.08;0.45;;;15.40;99.90;;;;;;5096257;28;20276;-71
2023/08/16 07:03:44;;;;;;;1.15;0.40;;;15.40;99.90;;;;;;5095692;28;20195;-72
2023/08/16 07:06:15;;;;;;;3.67;0.50;;;15.40;99.90;;;;;;5093892;28;20188;-70
2023/08/16 07:08:46;;;;;;;1.63;0.50;;;15.30;99.90;;;;;;5089220;28;20185;-71
2023/08/16 07:11:16;;;;;;;0.52;0.30;;;15.30;99.90;;;;;;5077398;28;20236;-71
2023/08/16 07:13:48;;;;;;;1.35;0.43;;;15.20;99.90;;;;;;5093763;28;20523;-73
2023/08/16 07:16:21;;;;;;;2.53;1.45;;;15.20;99.90;;;;;;5095395;28;20220;-70
2023/08/16 07:18:52;;;;;;;4.35;1.90;;;15.10;99.90;;;;;;5077862;28;20189;-70
2023/08/16 07:21:23;;;;;;;1.60;1.00;;;15.10;99.90;;;;;;5092084;28;20185;-70
2023/08/16 07:23:54;;;;;;;1.50;0.70;;;15.00;99.90;;;;;;5075001;28;20302;-71
2023/08/16 07:26:24;;;;;;;1.40;0.60;;;14.90;99.90;;;;;;5084065;28;20192;-70
2023/08/16 07:28:55;;;;;;;0.95;0.60;;;14.90;99.90;;;;;;5086290;28;20189;-70
2023/08/16 07:31:28;;;;;;;1.50;0.75;;;14.80;99.90;;;;;;5091102;28;20199;-71
2023/08/16 07:33:59;;;;;;;1.48;0.70;;;14.80;99.90;;;;;;5091520;28;20203;-70
2023/08/16 07:36:30;;;;;;;1.83;0.60;;;14.70;99.90;;;;;;5092948;28;20216;-71
2023/08/16 07:39:00;;;;;;;0.77;0.50;;;14.70;99.90;;;;;;5081669;28;20193;-70
2023/08/16 07:41:31;;;;;;;1.30;0.60;;;14.60;99.90;;;;;;5075013;28;20196;-70
2023/08/16 07:44:02;;;;;;;1.30;0.60;;;14.60;99.90;;;;;;5074798;28;20191;-72
2023/08/16 07:46:34;;;;;;;0.57;0.52;;;14.50;99.90;;;;;;5074936;28;20193;-71
2023/08/16 07:49:05;;;;;;;0.73;0.55;;;14.40;99.90;;;;;;5074505;28;20195;-72
2023/08/16 07:51:36;;;;;;;2.13;0.60;;;14.40;99.90;;;;;;5074649;28;20212;-71
2023/08/16 07:54:07;;;;;;;1.50;0.70;;;14.40;99.90;;;;;;5075974;28;20652;-72
2023/08/16 07:56:38;;;;;;;1.80;0.60;;;14.30;99.90;;;;;;5086296;28;20219;-72
2023/08/16 07:59:08;;;;;;;2.78;0.60;;;14.30;99.90;;;;;;5087163;28;20211;-72
2023/08/16 08:01:42;;;;;;;2.92;0.60;;;14.20;99.90;;;;;;5090258;28;20207;-72
2023/08/16 08:04:13;;;;;;;1.20;0.70;;;14.20;99.90;;;;;;5085362;28;20287;-72
2023/08/16 08:06:44;;;;;;;2.35;0.90;;;14.10;99.90;;;;;;5086533;28;20197;-72
2023/08/16 08:09:15;;;;;;;1.67;1.20;;;14.10;99.90;;;;;;5076347;28;20201;-72
2023/08/16 08:11:45;;;;;;;2.05;0.90;;;14.10;99.90;;;;;;5080021;28;20229;-72
2023/08/16 08:14:16;;;;;;;1.77;0.80;;;14.10;99.90;;;;;;5080569;28;20218;-72
2023/08/16 08:16:49;;;;;;;1.52;0.75;;;14.00;99.90;;;;;;5078374;28;20209;-72
2023/08/16 08:19:20;;;;;;;0.50;0.50;;;14.00;99.90;;;;;;5074707;28;20295;-72
2023/08/16 08:21:50;;;;;;;1.02;0.70;;;14.00;99.90;;;;;;5082413;28;20199;-72
2023/08/16 08:24:21;;;;;;;1.20;0.68;;;14.00;99.90;;;;;;5078097;28;20197;-72
2023/08/16 08:26:52;;;;;;;0.50;0.50;;;13.90;99.90;;;;;;5074522;28;20220;-72
2023/08/16 08:29:25;;;;;;;2.13;0.73;;;13.90;99.90;;;;;;5075391;28;20208;-72
2023/08/16 08:31:57;;;;;;;0.82;0.73;;;13.90;99.90;;;;;;5074250;28;20586;-72
2023/08/16 08:34:28;;;;;;;1.77;0.57;;;13.90;99.90;;;;;;5084746;28;20196;-72
2023/08/16 08:37:01;;;;;;;2.40;0.60;;;13.80;99.90;;;;;;5074021;28;20216;-72
2023/08/16 08:39:31;;;;;;;1.48;0.70;;;13.80;99.90;;;;;;5073776;28;20282;-72
2023/08/16 08:42:04;;;;;;;0.98;0.70;;;13.80;99.90;;;;;;5079170;28;20627;-72
2023/08/16 08:44:35;;;;;;;1.35;0.80;;;13.80;99.90;;;;;;5083231;28;20279;-73
2023/08/16 08:47:09;;;;;;;2.55;0.90;;;13.70;99.90;;;;;;5084725;28;20193;-71
2023/08/16 08:49:41;;;;;;;1.88;0.80;;;13.70;99.90;;;;;;5073257;28;20361;-72
2023/08/16 08:52:12;;;;;;;1.27;0.80;;;13.70;99.90;;;;;;5073506;28;20205;-72
2023/08/16 08:54:43;;;;;;;2.05;0.90;;;13.70;99.90;;;;;;5076699;28;20196;-72
2023/08/16 08:57:14;;;;;;;1.63;1.10;;;13.70;99.90;;;;;;5073004;28;20221;-72
2023/08/16 08:59:49;;;;;;;1.00;0.90;;;13.60;99.90;;;;;;5076615;28;20197;-72
2023/08/16 09:02:22;;;;;;;1.27;0.82;;;13.60;99.90;;;;;;5079992;28;20205;-72
2023/08/16 09:04:54;;;;;;;1.10;0.80;;;13.50;99.90;;;;;;5074289;28;20197;-71
2023/08/16 09:07:25;;;;;;;1.77;0.88;;;13.50;99.90;;;;;;5079792;28;20220;-71
2023/08/16 09:09:56;;;;;;;1.92;0.88;;;13.50;99.90;;;;;;5073341;28;20197;-70
2023/08/16 09:12:27;;;;;;;1.90;1.10;;;13.40;99.90;;;;;;5081476;28;20227;-71
2023/08/16 09:14:58;;;;;;;1.50;1.00;;;13.40;99.90;;;;;;5074136;28;20220;-71
2023/08/16 09:17:31;;;;;;;1.25;1.00;;;13.30;99.90;;;;;;5073304;28;20212;-72
2023/08/16 09:20:05;;;;;;;1.70;1.13;;;13.20;99.90;;;;;;5077219;28;20207;-71
2023/08/16 09:22:36;;;;;;;1.75;1.15;;;13.20;99.90;;;;;;5074020;28;20645;-72
2023/08/16 09:25:11;;;;;;;3.40;1.63;;;13.20;99.90;;;;;;5074168;28;20197;-72
2023/08/16 09:27:45;;;;;;;2.83;1.70;;;13.10;99.90;;;;;;5076801;28;20682;-72
2023/08/16 09:30:18;;;;;;;2.80;1.90;;;13.10;99.90;;;;;;5080392;28;20649;-72
2023/08/16 09:32:51;;;;;;;2.42;1.90;;;13.10;99.90;;;;;;5082909;28;20205;-72
2023/08/16 09:35:28;;;;;;;3.22;1.90;;;13.00;99.90;;;;;;5073014;28;20273;-72
2023/08/16 09:38:03;;;;;;;3.78;1.90;;;13.00;99.90;;;;;;5073214;28;20201;-72
2023/08/16 09:40:34;;;;;;;2.00;1.63;;;13.00;99.90;;;;;;5082482;28;20191;-72
2023/08/16 09:43:04;;;;;;;2.75;1.80;;;13.00;99.90;;;;;;5073795;28;20207;-72
2023/08/16 09:45:36;;;;;;;2.70;1.55;;;13.00;99.90;;;;;;5073328;28;20196;-72
2023/08/16 09:48:12;;;;;;;2.17;1.60;;;12.90;99.90;;;;;;5076160;28;20285;-71
2023/08/16 09:50:43;;;;;;;2.58;1.50;;;12.90;99.90;;;;;;5072757;28;20200;-70
2023/08/16 09:53:15;;;;;;;1.98;1.42;;;12.90;99.90;;;;;;5073060;28;20189;-70
2023/08/16 09:55:51;;;;;;;3.10;1.58;;;12.80;99.90;;;;;;5077104;28;20216;-70
2023/08/16 09:58:24;;;;;;;1.88;1.40;;;12.80;99.90;;;;;;5079398;28;20311;-71
2023/08/16 10:00:54;;;;;;;2.13;1.33;;;12.80;99.90;;;;;;5073637;28;20199;-71
2023/08/16 10:03:28;;;;;;;47.10;29.02;;;12.80;99.90;;;;;;5080446;28;20222;-71
2023/08/16 10:06:00;;;;;;;65.05;44.28;;;12.80;99.90;;;;;;5072710;28;20201;-72
2023/08/16 10:08:33;;;;;;;16.55;11.52;;;12.70;99.90;;;;;;5074106;28;20283;-71
2023/08/16 10:11:04;;;;;;;5.20;3.33;;;12.70;99.90;;;;;;5072699;28;20229;-71
2023/08/16 10:13:35;;;;;;;5.38;3.55;;;12.70;99.90;;;;;;5073259;28;20201;-72
2023/08/16 10:16:06;;;;;;;3.40;2.50;;;12.60;99.90;;;;;;5086837;28;20230;-72
2023/08/16 10:18:40;;;;;;;5.20;2.92;;;12.60;99.90;;;;;;5075448;28;20192;-72
2023/08/16 10:21:12;;;;;;;6.43;4.07;;;12.60;99.90;;;;;;5076500;28;20208;-71
2023/08/16 10:23:43;;;;;;;4.72;3.67;;;12.60;99.90;;;;;;5082934;28;20199;-72
2023/08/16 10:26:17;;;;;;;5.55;4.55;;;12.60;99.90;;;;;;5076818;28;20254;-72
2023/08/16 10:28:51;;;;;;;6.53;4.78;;;12.50;99.90;;;;;;5078138;28;20747;-71
2023/08/16 10:31:26;;;;;;;5.68;3.97;;;12.40;99.90;;;;;;5085485;28;20207;-72
2023/08/16 10:34:00;;;;;;;4.50;3.00;;;12.40;99.90;;;;;;5075933;28;20560;-72
2023/08/16 10:36:32;;;;;;;5.03;3.30;;;12.40;99.90;;;;;;5082250;28;20222;-72
2023/08/16 10:39:03;;;;;;;6.32;3.78;;;12.40;99.90;;;;;;5077121;28;20197;-72
2023/08/16 10:41:43;;;;;;;3.78;2.83;;;12.30;99.90;;;;;;5079267;28;20200;-71
2023/08/16 10:44:23;;;;;;;3.75;2.50;;;12.30;99.90;;;;;;5076105;28;20287;-72
2023/08/16 10:46:54;;;;;;;4.47;2.72;;;12.30;99.90;;;;;;5075700;28;20189;-71
2023/08/16 10:49:37;;;;;;;2.30;2.10;;;12.20;99.90;;;;;;5081390;28;20192;-72
2023/08/16 10:52:08;;;;;;;3.13;2.05;;;12.20;99.90;;;;;;5075683;28;20672;-71
2023/08/16 10:54:40;;;;;;;3.55;2.00;;;12.20;99.90;;;;;;5076572;28;20188;-72
2023/08/16 10:57:11;;;;;;;2.92;2.10;;;12.20;99.90;;;;;;5076401;28;20225;-72
2023/08/16 10:59:42;;;;;;;2.63;2.10;;;12.20;99.90;;;;;;5085263;28;20203;-72
2023/08/16 11:02:17;;;;;;;2.67;2.45;;;12.20;99.90;;;;;;5084277;28;20657;-72
2023/08/16 11:04:50;;;;;;;2.42;2.20;;;12.20;99.90;;;;;;5075553;28;20694;-72
2023/08/16 11:07:22;;;;;;;2.70;2.10;;;12.10;99.90;;;;;;5079825;28;20208;-71
2023/08/16 11:09:53;;;;;;;4.15;2.00;;;12.10;99.90;;;;;;5081064;28;20211;-71
2023/08/16 11:12:30;;;;;;;3.95;2.00;;;12.10;99.90;;;;;;5084632;28;20251;-72
2023/08/16 11:15:01;;;;;;;2.42;1.88;;;12.10;99.90;;;;;;5081920;28;20195;-72
2023/08/16 11:17:33;;;;;;;2.60;1.70;;;12.10;99.90;;;;;;5091301;28;20224;-72
2023/08/16 11:20:07;;;;;;;3.63;1.75;;;12.00;99.90;;;;;;5081989;28;20590;-71
2023/08/16 11:22:40;;;;;;;1.95;1.45;;;12.00;99.90;;;;;;5080407;28;20655;-72
2023/08/16 11:25:11;;;;;;;2.28;1.70;;;12.00;99.90;;;;;;5078336;28;20205;-72
2023/08/16 11:27:42;;;;;;;2.60;1.70;;;12.00;99.90;;;;;;5077665;28;20675;-72
2023/08/16 11:30:14;;;;;;;2.95;1.90;;;12.00;99.90;;;;;;5074197;28;20203;-72
2023/08/16 11:32:46;;;;;;;2.97;2.00;;;12.00;99.90;;;;;;5075349;28;20574;-72
2023/08/16 11:35:19;;;;;;;2.55;2.28;;;12.00;99.90;;;;;;5077147;28;20620;-72
2023/08/16 11:37:50;;;;;;;3.60;2.97;;;12.00;99.90;;;;;;5074868;28;20624;-72
2023/08/16 11:40:22;;;;;;;3.35;2.90;;;12.00;99.90;;;;;;5076461;28;20654;-71
2023/08/16 11:42:54;;;;;;;3.72;2.70;;;12.00;99.90;;;;;;5074932;28;20201;-72
2023/08/16 11:45:26;;;;;;;3.08;2.78;;;12.00;99.90;;;;;;5075841;28;20572;-72
2023/08/16 11:47:57;;;;;;;3.53;2.47;;;12.00;99.90;;;;;;5075117;28;20204;-71
2023/08/16 11:50:31;;;;;;;3.13;2.00;;;12.00;99.90;;;;;;5074794;28;20208;-72
2023/08/16 11:53:02;;;;;;;2.63;1.90;;;12.00;99.90;;;;;;5078194;28;20222;-72
2023/08/16 11:55:33;;;;;;;2.42;1.88;;;12.00;99.90;;;;;;5085580;28;20192;-72
2023/08/16 11:58:08;;;;;;;3.70;2.10;;;12.00;99.90;;;;;;5080075;28;20240;-72
2023/08/16 12:00:41;;;;;;;2.42;2.10;;;11.90;99.90;;;;;;5075341;28;20224;-72
2023/08/16 12:03:12;;;;;;;3.72;2.05;;;11.90;99.90;;;;;;5092812;28;20253;-72
2023/08/16 12:05:47;;;;;;;3.88;2.10;;;12.00;99.90;;;;;;5085835;28;20204;-72
2023/08/16 12:08:23;;;;;;;5.25;2.20;;;11.90;99.90;;;;;;5081197;28;20196;-71
2023/08/16 12:10:57;;;;;;;3.22;1.85;;;11.90;99.90;;;;;;5086020;28;20242;-71
2023/08/16 12:13:28;;;;;;;3.10;1.75;;;11.90;99.90;;;;;;5078224;28;20189;-72
2023/08/16 12:15:59;;;;;;;2.38;1.90;;;11.90;99.90;;;;;;5083089;28;20671;-71
2023/08/16 12:18:30;;;;;;;3.83;2.70;;;11.90;99.90;;;;;;5075217;28;20687;-72
2023/08/16 12:21:03;;;;;;;3.63;2.53;;;11.80;99.90;;;;;;5092423;28;20188;-72
2023/08/16 12:23:34;;;;;;;4.05;2.20;;;11.80;99.90;;;;;;5094319;28;20193;-71
2023/08/16 12:26:05;;;;;;;3.10;2.42;;;11.80;99.90;;;;;;5094533;28;20196;-71
2023/08/16 12:28:36;;;;;;;4.03;2.38;;;11.70;99.90;;;;;;5079377;28;20193;-72
2023/08/16 12:31:06;;;;;;;4.18;2.92;;;11.70;99.90;;;;;;5074590;28;20204;-72
2023/08/16 12:33:37;;;;;;;4.13;2.95;;;11.70;99.90;;;;;;5074085;28;20189;-72
2023/08/16 12:36:11;;;;;;;2.85;2.38;;;11.70;99.90;;;;;;5074624;28;20189;-72
2023/08/16 12:38:42;;;;;;;2.67;2.25;;;11.70;99.90;;;;;;5079215;28;20216;-72
2023/08/16 12:41:13;;;;;;;5.45;2.45;;;11.60;99.90;;;;;;5074469;28;20197;-72
2023/08/16 12:43:44;;;;;;;5.72;3.05;;;11.60;99.90;;;;;;5074062;28;20204;-72
2023/08/16 12:46:14;;;;;;;3.85;2.80;;;11.60;99.90;;;;;;5087505;28;20204;-71
2023/08/16 12:48:45;;;;;;;4.40;3.00;;;11.60;99.90;;;;;;5085865;28;20565;-72
2023/08/16 12:51:18;;;;;;;4.00;2.80;;;11.50;99.90;;;;;;5085785;28;20250;-72
2023/08/16 12:53:49;;;;;;;6.03;3.28;;;11.50;99.90;;;;;;5082397;28;20204;-71
2023/08/16 12:56:20;;;;;;;3.70;2.95;;;11.50;99.90;;;;;;5073989;28;20189;-72
2023/08/16 12:58:51;;;;;;;6.55;4.05;;;11.50;99.90;;;;;;5080534;28;20206;-71
2023/08/16 13:01:22;;;;;;;6.55;4.38;;;11.50;99.90;;;;;;5080662;28;20204;-72
2023/08/16 13:03:53;;;;;;;6.30;4.15;;;11.50;99.90;;;;;;5074894;28;20192;-72
2023/08/16 13:06:25;;;;;;;6.25;4.47;;;11.50;99.90;;;;;;5074344;28;20219;-72
2023/08/16 13:08:56;;;;;;;7.35;4.65;;;11.50;99.90;;;;;;5073542;28;20203;-72